Terminal Aerodrome Forecast
Issued by NWS Sterling, VA

Current Version | Previous Version | Graphics & Text | Print | Product List | Glossary On
Versions: 1 2 3 4 5 6 7 8 9 10 11 12 13 14 15 16 17 18 19 20 21 22 23 24 25
000
FTUS41 KLWX 031122
TAFDCA
TAF
KDCA 031122Z 0312/0412 VRB03KT P6SM FEW100 SCT250
     FM031500 30006KT P6SM SCT050
     FM032100 24005KT P6SM SCT050
     FM040100 20005KT P6SM FEW250=

USA.gov is the U.S. government's official web portal to all federal, state and local government web resources and services.